LDSP/SPU METAR and TAF weather

Enter ICAO airport designator
Station Type Date Time Source
LDSP METAR 2019/12/16 06:00 UTC NOAA

LDSP 160600Z 09007KT 050V130 9999 BKN033 15/10 Q1022 NOSIG


Station Type Date Time Source
LDSP Decoded METAR 2019/12/16 06:00 UTC NOAA

Split / Resnik, Croatia (LDSP) 43-32N 016-18E 21M
Dec 16, 2019 - 01:00 AM EST / 2019.12.16 0600 UTC
Wind: from the E (090 degrees) at 8 MPH (7 KT) (direction variable):0
Visibility: greater than 7 mile(s):0
Sky conditions: mostly cloudy
Temperature: 59 F (15 C)
Dew Point: 50 F (10 C)
Relative Humidity: 72%
Pressure (altimeter): 30.18 in. Hg (1022 hPa)
ob: LDSP 160600Z 09007KT 050V130 9999 BKN033 15/10 Q1022 NOSIG
cycle: 6

Station Type Date Time Source
LDSP TAF 2019/12/16 06:28 UTC NOAA

TAF LDSP 160525Z 1606/1706 10008KT 9999 BKN027 TX16/1612Z TN14/1606Z
BECMG 1610/1612 11012KT
BECMG 1615/1617 10008KT

Example: see airport list